createdAt,value
2019-01-19T00:00:46.087Z,1.44
2019-01-19T00:03:53.067Z,1.46
2019-01-19T00:07:01.415Z,1.44
2019-01-19T00:10:09.718Z,1.39
2019-01-19T00:13:16.683Z,1.46
2019-01-19T00:16:24.983Z,1.41
2019-01-19T00:19:33.273Z,1.26
2019-01-19T00:22:41.560Z,1.10
2019-01-19T00:25:49.865Z,1.08
2019-01-19T00:28:56.832Z,1.08
2019-01-19T00:32:05.189Z,1.05
2019-01-19T00:35:17.798Z,1.01
2019-01-19T00:38:22.181Z,0.66
2019-01-19T00:41:29.160Z,0.75
2019-01-19T00:44:37.457Z,0.77
2019-01-19T00:47:45.798Z,0.85
2019-01-19T00:50:54.087Z,0.89
2019-01-19T00:54:02.377Z,0.95
2019-01-19T00:57:10.671Z,1.05
2019-01-19T00:59:58.303Z,1.11
2019-01-19T01:03:05.270Z,1.18
2019-01-19T01:06:13.573Z,1.25
2019-01-19T01:09:20.548Z,1.27
2019-01-19T01:12:28.855Z,1.29
2019-01-19T01:15:37.223Z,1.21
2019-01-19T01:18:44.193Z,1.14
2019-01-19T01:21:51.177Z,1.13
2019-01-19T01:24:59.524Z,1.12
2019-01-19T01:28:07.895Z,1.08
2019-01-19T01:31:14.875Z,1.14
2019-01-19T01:34:23.168Z,1.12
2019-01-19T01:37:31.460Z,1.08
2019-01-19T01:40:38.438Z,0.93
2019-01-19T01:43:46.786Z,0.96
2019-01-19T01:46:55.079Z,0.90
2019-01-19T01:50:03.368Z,0.85
2019-01-19T01:53:11.728Z,0.75
2019-01-19T01:56:20.027Z,0.74
2019-01-19T01:59:28.373Z,0.67
2019-01-19T02:02:35.348Z,0.60
2019-01-19T02:05:43.669Z,0.55
2019-01-19T02:08:50.651Z,0.55
2019-01-19T02:11:58.963Z,0.51
2019-01-19T02:15:05.933Z,0.47
2019-01-19T02:18:12.913Z,0.49
2019-01-19T02:21:19.882Z,0.49
2019-01-19T02:24:28.468Z,0.51
2019-01-19T02:27:35.439Z,0.50
2019-01-19T02:30:43.733Z,0.47
2019-01-19T02:33:50.708Z,0.43
2019-01-19T02:36:57.681Z,0.40
2019-01-19T02:40:04.641Z,0.16
2019-01-19T02:43:12.987Z,0.23
2019-01-19T02:46:21.299Z,-0.04
2019-01-19T02:49:28.272Z,-0.01
2019-01-19T02:52:36.565Z,0.06
2019-01-19T02:55:43.998Z,0.07
2019-01-19T02:58:51.035Z,0.08
2019-01-19T03:01:59.375Z,0.07
2019-01-19T03:05:07.743Z,0.05
2019-01-19T03:08:16.039Z,0.02
2019-01-19T03:11:23.011Z,0.01
2019-01-19T03:14:31.356Z,-0.02
2019-01-19T03:17:38.332Z,-0.03
2019-01-19T03:20:46.681Z,-0.06
2019-01-19T03:23:54.983Z,-0.07
2019-01-19T03:27:03.270Z,-0.07
2019-01-19T03:30:10.256Z,-0.07
2019-01-19T03:33:18.564Z,-0.09
2019-01-19T03:36:25.529Z,-0.21
2019-01-19T03:39:32.579Z,-0.23
2019-01-19T03:42:40.865Z,-0.47
2019-01-19T03:45:47.846Z,-0.40
2019-01-19T03:48:54.811Z,-0.34
2019-01-19T03:52:03.177Z,-0.47
2019-01-19T03:55:10.144Z,-0.58
2019-01-19T03:58:18.483Z,-0.51
2019-01-19T04:01:26.810Z,-0.50
2019-01-19T04:04:35.105Z,-0.50
2019-01-19T04:07:43.397Z,-0.53
2019-01-19T04:10:50.373Z,-0.80
2019-01-19T04:13:57.354Z,-0.96
2019-01-19T04:17:04.321Z,-0.90
2019-01-19T04:20:11.296Z,-0.86
2019-01-19T04:22:58.999Z,-0.85
2019-01-19T04:26:07.297Z,-0.82
2019-01-19T04:28:55.189Z,-0.81
2019-01-19T04:31:23.638Z,-0.81
2019-01-19T04:34:11.292Z,-0.80
2019-01-19T04:39:28.765Z,-0.75
2019-01-19T04:42:16.456Z,-0.75
2019-01-19T04:47:18.957Z,-0.76
2019-01-19T04:50:06.488Z,-0.77
2019-01-19T04:52:34.853Z,-0.75
2019-01-19T04:58:37.416Z,-0.82
2019-01-19T05:01:05.810Z,-0.83
2019-01-19T05:03:53.528Z,-0.85
2019-01-19T05:06:41.176Z,-0.86
2019-01-19T05:09:09.602Z,-0.83
2019-01-19T05:11:37.971Z,-0.93
2019-01-19T05:14:46.266Z,-0.96
2019-01-19T05:17:14.647Z,-0.98
2019-01-19T05:19:43.049Z,-1.13
2019-01-19T05:22:30.541Z,-1.19
2019-01-19T05:24:58.937Z,-1.26
2019-01-19T05:27:27.323Z,-1.20
2019-01-19T05:29:55.711Z,-1.33
2019-01-19T05:35:32.354Z,-1.16
2019-01-19T05:40:48.188Z,-1.13
2019-01-19T05:43:16.567Z,-1.14
2019-01-19T05:45:44.964Z,-1.13
2019-01-19T05:48:13.346Z,-1.13
2019-01-19T05:53:34.793Z,-1.15
2019-01-19T05:56:22.427Z,-1.16
2019-01-19T05:58:50.813Z,-1.21
2019-01-19T06:01:38.336Z,-1.23
2019-01-19T06:06:54.171Z,-1.29
2019-01-19T06:09:22.555Z,-1.32
2019-01-19T06:11:50.940Z,-1.38
2019-01-19T06:14:19.323Z,-1.56
2019-01-19T06:16:47.716Z,-1.49
2019-01-19T06:24:59.449Z,-1.51
2019-01-19T06:27:47.079Z,-1.54
2019-01-19T06:33:22.253Z,-1.67
2019-01-19T06:35:50.639Z,-1.76
2019-01-19T06:38:38.281Z,-1.70
2019-01-19T06:44:01.539Z,-1.71
2019-01-19T06:46:29.956Z,-1.79
2019-01-19T06:49:17.579Z,-1.73
2019-01-19T06:51:45.976Z,-1.78
2019-01-19T06:54:33.604Z,-1.76
2019-01-19T06:57:01.988Z,-1.75
2019-01-19T06:59:49.619Z,-1.86
2019-01-19T07:04:52.446Z,-1.86
2019-01-19T07:07:20.850Z,-1.84
2019-01-19T07:09:49.250Z,-1.80
2019-01-19T07:12:37.841Z,-1.79
2019-01-19T07:15:46.136Z,-1.75
2019-01-19T07:18:14.531Z,-1.78
2019-01-19T07:20:42.922Z,-1.78
2019-01-19T07:23:51.217Z,-1.80
2019-01-19T07:26:38.721Z,-1.79
2019-01-19T07:29:07.103Z,-1.79
2019-01-19T07:34:10.109Z,-1.76
2019-01-19T07:36:57.619Z,-1.71
2019-01-19T07:39:26.001Z,-1.71
2019-01-19T07:41:54.394Z,-1.67
2019-01-19T07:44:22.787Z,-1.64
2019-01-19T07:49:26.378Z,-1.64
2019-01-19T07:52:13.880Z,-1.56
2019-01-19T07:55:01.384Z,-1.75
2019-01-19T07:57:48.888Z,-1.54
2019-01-19T08:00:57.173Z,-1.51
2019-01-19T08:03:44.861Z,-1.57
2019-01-19T08:06:13.200Z,-1.48
2019-01-19T08:09:00.710Z,-1.29
2019-01-19T08:11:29.095Z,-1.17
2019-01-19T08:14:16.724Z,-0.93
2019-01-19T08:16:45.122Z,-0.56
2019-01-19T08:19:32.743Z,0.13
2019-01-19T08:22:01.131Z,0.88
2019-01-19T08:27:18.594Z,2.64
2019-01-19T08:32:34.420Z,3.53
2019-01-19T08:38:10.866Z,4.15
2019-01-19T08:46:05.518Z,4.77
2019-01-19T08:48:33.902Z,4.98
2019-01-19T08:51:21.395Z,5.20
2019-01-19T08:53:49.784Z,5.41
2019-01-19T08:56:18.159Z,5.40
2019-01-19T08:58:46.567Z,5.58
2019-01-19T09:01:34.204Z,6.00
2019-01-19T09:04:21.941Z,6.13
2019-01-19T09:07:18.029Z,6.54
2019-01-19T09:19:11.979Z,6.89
2019-01-19T09:24:52.114Z,6.48
2019-01-19T09:27:28.928Z,6.17
2019-01-19T09:30:09.339Z,5.80
2019-01-19T09:32:46.700Z,6.34
2019-01-19T09:35:15.913Z,6.59
2019-01-19T09:40:43.111Z,7.36
2019-01-19T09:43:27.654Z,7.47
2019-01-19T09:46:03.196Z,7.80
2019-01-19T09:48:59.969Z,8.13
2019-01-19T09:51:50.343Z,8.31
2019-01-19T09:54:25.006Z,8.68
2019-01-19T10:00:26.626Z,9.38
2019-01-19T10:23:07.189Z,10.27
2019-01-19T10:26:15.515Z,10.25
2019-01-19T10:31:19.517Z,10.28
2019-01-19T10:34:07.267Z,10.09
2019-01-19T10:36:54.836Z,10.09
2019-01-19T10:39:23.247Z,10.42
2019-01-19T10:41:51.714Z,10.76
2019-01-19T10:44:39.219Z,10.96
2019-01-19T10:47:07.592Z,10.90
2019-01-19T10:49:55.240Z,11.10
2019-01-19T10:52:42.740Z,11.27
2019-01-19T10:55:51.019Z,11.72
2019-01-19T10:58:38.652Z,12.32
2019-01-19T11:01:26.368Z,12.38
2019-01-19T11:06:35.772Z,11.49
2019-01-19T11:09:44.068Z,10.41
2019-01-19T11:12:31.688Z,10.85
2019-01-19T11:15:00.203Z,10.41
2019-01-19T11:17:47.638Z,10.71
2019-01-19T11:20:35.367Z,10.76
2019-01-19T11:23:03.768Z,10.94
2019-01-19T11:25:32.142Z,10.64
2019-01-19T11:28:19.748Z,10.52
2019-01-19T11:31:07.330Z,10.63
2019-01-19T11:33:35.818Z,10.35
2019-01-19T11:36:04.318Z,10.21
2019-01-19T11:38:32.753Z,9.53
2019-01-19T11:43:48.642Z,9.26
2019-01-19T11:49:23.827Z,7.98
2019-01-19T11:51:52.340Z,7.54
2019-01-19T11:54:40.301Z,6.58
2019-01-19T11:57:28.024Z,6.09
2019-01-19T11:59:56.438Z,5.64
2019-01-19T12:02:44.120Z,5.25
2019-01-19T12:05:12.604Z,5.33
2019-01-19T12:08:00.119Z,5.07
2019-01-19T12:11:08.453Z,4.77
2019-01-19T12:13:36.900Z,4.97
2019-01-19T12:16:45.271Z,5.10
2019-01-19T12:19:13.693Z,4.93
2019-01-19T12:21:42.091Z,4.88
2019-01-19T12:24:10.488Z,4.87
2019-01-19T12:26:38.858Z,4.88
2019-01-19T12:29:07.241Z,4.80
2019-01-19T12:31:54.857Z,4.93
2019-01-19T12:34:23.238Z,5.05
2019-01-19T12:36:51.610Z,5.32
2019-01-19T12:39:39.238Z,5.45
2019-01-19T12:44:55.059Z,5.50
2019-01-19T12:47:23.430Z,5.26
2019-01-19T12:49:51.810Z,5.23
2019-01-19T12:52:20.351Z,5.08
2019-01-19T12:54:48.731Z,4.99
2019-01-19T12:57:17.205Z,5.06
2019-01-19T12:59:45.595Z,5.31
2019-01-19T13:02:13.974Z,5.20
2019-01-19T13:04:42.360Z,4.78
2019-01-19T13:07:10.902Z,4.83
2019-01-19T13:09:39.288Z,4.88
2019-01-19T13:12:10.759Z,5.10
2019-01-19T13:14:42.250Z,5.17
2019-01-19T13:17:34.400Z,5.06
2019-01-19T13:20:11.578Z,4.84
2019-01-19T13:22:58.215Z,4.60
2019-01-19T13:25:32.447Z,4.56
2019-01-19T13:28:35.557Z,4.60
2019-01-19T13:31:21.920Z,4.78
2019-01-19T13:34:15.685Z,4.72
2019-01-19T13:36:55.379Z,4.69
2019-01-19T13:39:36.034Z,4.62
2019-01-19T13:42:07.469Z,4.42
2019-01-19T13:45:12.235Z,4.54
2019-01-19T13:48:06.388Z,4.61
2019-01-19T13:50:46.799Z,4.59
2019-01-19T13:53:18.223Z,4.49
2019-01-19T13:55:58.828Z,4.70
2019-01-19T13:58:45.055Z,4.65
2019-01-19T14:01:32.731Z,4.65
2019-01-19T14:04:12.607Z,4.67
2019-01-19T14:06:49.978Z,4.67
2019-01-19T14:09:27.123Z,4.49
2019-01-19T14:12:01.129Z,4.32
2019-01-19T14:14:44.581Z,4.41
2019-01-19T14:17:34.382Z,4.45
2019-01-19T14:20:05.816Z,4.50
2019-01-19T14:22:54.071Z,4.54
2019-01-19T14:25:33.971Z,4.56
2019-01-19T14:28:14.200Z,4.39
2019-01-19T14:31:15.851Z,4.41
2019-01-19T14:33:53.586Z,4.54
2019-01-19T14:36:44.921Z,4.59
2019-01-19T14:39:22.108Z,4.72
2019-01-19T14:41:59.326Z,4.71
2019-01-19T14:44:30.755Z,4.50
2019-01-19T14:47:17.061Z,4.38
2019-01-19T14:50:00.292Z,4.42
2019-01-19T14:52:31.878Z,4.32
2019-01-19T14:55:09.509Z,4.22
2019-01-19T14:57:49.422Z,4.14
2019-01-19T15:00:26.777Z,4.10
2019-01-19T15:03:10.311Z,4.07
2019-01-19T15:05:50.700Z,3.97
2019-01-19T15:08:22.124Z,3.99
2019-01-19T15:11:05.405Z,3.89
2019-01-19T15:13:39.509Z,3.87
2019-01-19T15:16:16.834Z,3.72
2019-01-19T15:18:54.144Z,3.81
2019-01-19T15:21:37.800Z,3.57
2019-01-19T15:24:09.235Z,3.47
2019-01-19T15:26:46.136Z,3.57
2019-01-19T15:29:35.659Z,3.49
2019-01-19T15:32:16.054Z,3.49
2019-01-19T15:34:47.483Z,3.43
2019-01-19T15:37:34.160Z,3.47
2019-01-19T15:40:28.264Z,3.49
2019-01-19T15:43:11.535Z,3.39
2019-01-19T15:45:45.686Z,3.46
2019-01-19T15:48:29.079Z,3.36
2019-01-19T15:51:27.750Z,3.34
2019-01-19T15:54:11.375Z,3.21
2019-01-19T15:56:54.575Z,3.29
2019-01-19T15:59:42.598Z,3.35
2019-01-19T16:02:30.901Z,3.24
2019-01-19T16:05:13.647Z,3.22
2019-01-19T16:08:00.274Z,3.10
2019-01-19T16:10:43.776Z,3.03
2019-01-19T16:13:15.219Z,2.95
2019-01-19T16:16:20.522Z,2.86
2019-01-19T16:19:10.079Z,2.73
2019-01-19T16:22:10.511Z,2.66
2019-01-19T16:24:47.814Z,2.57
2019-01-19T16:27:36.695Z,2.50
2019-01-19T16:30:27.527Z,2.33
2019-01-19T16:33:01.671Z,2.12
2019-01-19T16:35:39.296Z,1.98
2019-01-19T16:38:28.564Z,1.71
2019-01-19T16:41:16.583Z,1.66
2019-01-19T16:43:57.206Z,1.49
2019-01-19T16:46:28.632Z,1.38
2019-01-19T16:49:00.065Z,1.32
2019-01-19T16:51:47.993Z,1.27
2019-01-19T16:54:22.732Z,1.20
2019-01-19T16:56:57.084Z,1.22
2019-01-19T16:59:43.370Z,1.29
2019-01-19T17:02:29.165Z,1.22
2019-01-19T17:05:12.259Z,1.35
2019-01-19T17:07:55.491Z,1.27
2019-01-19T17:10:35.972Z,1.24
2019-01-19T17:13:07.395Z,1.37
2019-01-19T17:15:38.841Z,1.46
2019-01-19T17:18:27.948Z,1.54
2019-01-19T17:21:21.865Z,1.50
2019-01-19T17:24:08.118Z,1.41
2019-01-19T17:26:56.351Z,1.53
2019-01-19T17:29:45.708Z,1.39
2019-01-19T17:32:25.947Z,1.22
2019-01-19T17:35:13.454Z,1.15
2019-01-19T17:37:47.946Z,1.13
2019-01-19T17:40:48.744Z,0.86
2019-01-19T17:43:26.044Z,0.77
2019-01-19T17:46:06.191Z,0.63
2019-01-19T17:48:43.344Z,0.59
2019-01-19T17:51:26.757Z,0.81
2019-01-19T17:54:00.827Z,0.86
2019-01-19T17:56:56.081Z,0.94
2019-01-19T17:59:27.506Z,0.83
2019-01-19T18:02:24.694Z,0.91
2019-01-19T18:05:01.687Z,0.90
2019-01-19T18:07:36.026Z,0.90
2019-01-19T18:10:29.832Z,0.81
2019-01-19T18:13:13.065Z,0.69
2019-01-19T18:16:01.219Z,0.49
2019-01-19T18:18:51.803Z,0.46
2019-01-19T18:21:32.104Z,0.64
2019-01-19T18:24:09.555Z,0.63
2019-01-19T18:26:40.994Z,0.49
2019-01-19T18:29:18.334Z,0.51
2019-01-19T18:31:52.441Z,0.50
2019-01-19T18:34:35.520Z,0.54
2019-01-19T18:37:28.243Z,0.49
2019-01-19T18:40:08.464Z,0.55
2019-01-19T18:42:39.900Z,0.48
2019-01-19T18:45:43.436Z,0.47
2019-01-19T18:48:17.821Z,0.52
2019-01-19T18:51:26.171Z,0.49
2019-01-19T18:54:34.518Z,0.30
2019-01-19T18:57:41.496Z,0.28
2019-01-19T19:00:48.462Z,0.36
2019-01-19T19:03:55.437Z,0.32
2019-01-19T19:07:03.825Z,0.29
2019-01-19T19:10:10.787Z,0.18
2019-01-19T19:13:19.142Z,0.24
2019-01-19T19:16:26.698Z,0.28
2019-01-19T19:19:33.688Z,0.24
2019-01-19T19:22:40.666Z,0.30
2019-01-19T19:25:49.004Z,0.33
2019-01-19T19:28:57.395Z,0.21
2019-01-19T19:32:05.705Z,0.24
2019-01-19T19:35:14.050Z,0.26
2019-01-19T19:38:22.403Z,0.24
2019-01-19T19:41:29.776Z,0.18
2019-01-19T19:44:36.720Z,0.09
2019-01-19T19:47:43.717Z,0.02
2019-01-19T19:50:50.679Z,0.09
2019-01-19T19:53:38.365Z,0.08
2019-01-19T19:56:05.606Z,-0.02
2019-01-19T19:58:53.132Z,-0.11
2019-01-19T20:01:40.622Z,-0.03
2019-01-19T20:04:09.007Z,0.14
2019-01-19T20:06:56.506Z,0.15
2019-01-19T20:12:39.158Z,0.11
2019-01-19T20:15:47.450Z,0.12
2019-01-19T20:21:08.957Z,-0.39
2019-01-19T20:23:37.349Z,-0.30
2019-01-19T20:26:05.739Z,-0.37
2019-01-19T20:31:07.805Z,-0.47
2019-01-19T20:33:55.443Z,-0.48
2019-01-19T20:36:23.834Z,-0.61
2019-01-19T20:41:45.258Z,-0.73
2019-01-19T20:46:48.076Z,-0.53
2019-01-19T20:51:51.083Z,-0.52
2019-01-19T20:54:38.594Z,-0.51
2019-01-19T20:57:07.000Z,-0.50
2019-01-19T20:59:54.748Z,-0.39
2019-01-19T21:02:23.152Z,-0.38
2019-01-19T21:04:51.557Z,-0.34
2019-01-19T21:10:47.325Z,-0.37
2019-01-19T21:13:15.752Z,-0.34
2019-01-19T21:16:03.248Z,-0.46
2019-01-19T21:18:50.917Z,-0.43
2019-01-19T21:21:19.337Z,-0.45
2019-01-19T21:23:47.748Z,-0.39
2019-01-19T21:26:16.167Z,-0.49
2019-01-19T21:28:44.556Z,-0.38
2019-01-19T21:31:12.970Z,-0.46
2019-01-19T21:34:00.631Z,-0.63
2019-01-19T21:36:29.069Z,-0.61
2019-01-19T21:41:31.073Z,-0.72
2019-01-19T21:44:18.606Z,-0.64
2019-01-19T21:49:34.455Z,-0.48
2019-01-19T21:52:02.962Z,-0.41
2019-01-19T21:54:31.358Z,-0.44
2019-01-19T21:56:59.754Z,-0.36
2019-01-19T21:59:28.188Z,-0.39
2019-01-19T22:04:44.083Z,-0.43
2019-01-19T22:07:12.571Z,-0.34
2019-01-19T22:09:40.971Z,-0.41
2019-01-19T22:12:09.762Z,-0.34
2019-01-19T22:14:38.230Z,-0.38
2019-01-19T22:17:06.606Z,-0.34
2019-01-19T22:19:35.003Z,-0.33
2019-01-19T22:22:03.403Z,-0.44
2019-01-19T22:24:31.796Z,-0.49
2019-01-19T22:27:00.459Z,-0.48
2019-01-19T22:29:29.053Z,-0.50
2019-01-19T22:31:57.444Z,-0.59
2019-01-19T22:34:25.834Z,-0.58
2019-01-19T22:36:54.263Z,-0.61
2019-01-19T22:39:22.625Z,-0.57
2019-01-19T22:41:51.018Z,-0.58
2019-01-19T22:44:19.400Z,-0.47
2019-01-19T22:46:47.980Z,-0.38
2019-01-19T22:49:16.368Z,-0.45
2019-01-19T22:51:44.798Z,-0.54
2019-01-19T22:54:13.193Z,-0.63
2019-01-19T22:56:41.576Z,-0.50
2019-01-19T22:59:10.032Z,-0.45
2019-01-19T23:01:38.502Z,-0.43
2019-01-19T23:04:06.996Z,-0.48
2019-01-19T23:06:35.466Z,-0.58
2019-01-19T23:09:07.126Z,-0.61
2019-01-19T23:11:35.692Z,-0.68
2019-01-19T23:14:05.405Z,-0.73
2019-01-19T23:16:34.034Z,-0.81
2019-01-19T23:19:02.470Z,-0.76
2019-01-19T23:21:30.879Z,-0.76
2019-01-19T23:23:59.281Z,-0.74
2019-01-19T23:26:28.513Z,-0.73
2019-01-19T23:28:56.913Z,-0.71
2019-01-19T23:31:25.491Z,-0.70
2019-01-19T23:33:53.899Z,-0.76
2019-01-19T23:36:22.324Z,-0.80
2019-01-19T23:38:50.730Z,-0.92
2019-01-19T23:41:19.195Z,-0.87
2019-01-19T23:43:47.584Z,-0.87
2019-01-19T23:46:16.091Z,-0.93
2019-01-19T23:48:44.478Z,-1.01
2019-01-19T23:51:12.936Z,-1.02
2019-01-19T23:53:41.316Z,-1.12
2019-01-19T23:56:09.709Z,-1.04
2019-01-19T23:58:38.164Z,-1.02
